Time;durP1;ratioP1;P1;durP2;ratioP2;P2;SDS_P1;SDS_P2;PMS_P1;PMS_P2;Temp;Humidity;BMP_temperature;BMP_pressure;BME280_temperature;BME280_humidity;BME280_pressure;Samples;Min_cycle;Max_cycle;Signal;HPM_P1;HPM_P2
2023/08/29 00:01:17;;;;;;;6.20;5.60;;;13.20;99.90;;;;;;6342506;22;20154;-57
2023/08/29 00:03:43;;;;;;;5.47;4.70;;;13.20;99.90;;;;;;6340414;22;20752;-57
2023/08/29 00:06:09;;;;;;;6.07;5.47;;;13.20;99.90;;;;;;6337585;22;20485;-58
2023/08/29 00:08:34;;;;;;;6.10;5.50;;;13.20;99.90;;;;;;6337144;22;20147;-56
2023/08/29 00:11:02;;;;;;;5.50;5.00;;;13.10;99.90;;;;;;6337040;22;20174;-57
2023/08/29 00:13:28;;;;;;;6.30;5.80;;;13.20;99.90;;;;;;6337775;22;20178;-58
2023/08/29 00:15:55;;;;;;;5.33;4.93;;;13.10;99.90;;;;;;6339523;22;20381;-57
2023/08/29 00:18:21;;;;;;;5.87;5.37;;;13.20;99.90;;;;;;6339182;22;20421;-58
2023/08/29 00:20:47;;;;;;;6.17;5.67;;;13.20;99.90;;;;;;6339059;22;20403;-58
2023/08/29 00:23:12;;;;;;;7.10;5.73;;;13.20;99.90;;;;;;6338118;22;20385;-59
2023/08/29 00:25:38;;;;;;;5.97;5.37;;;13.20;99.90;;;;;;6337531;22;20139;-58
2023/08/29 00:28:04;;;;;;;5.87;5.43;;;13.10;99.90;;;;;;6336623;22;20182;-58
2023/08/29 00:30:37;;;;;;;5.30;4.90;;;13.10;99.90;;;;;;6336754;22;20457;-58
2023/08/29 00:33:03;;;;;;;7.73;5.97;;;13.10;99.90;;;;;;6338268;22;20143;-57
2023/08/29 00:35:28;;;;;;;6.00;5.50;;;13.10;99.90;;;;;;6339084;22;20407;-57
2023/08/29 00:37:54;;;;;;;5.83;5.43;;;13.10;99.90;;;;;;6338211;22;20383;-56
2023/08/29 00:40:20;;;;;;;5.87;5.40;;;13.10;99.90;;;;;;6339561;22;20572;-57
2023/08/29 00:42:46;;;;;;;6.13;5.53;;;13.10;99.90;;;;;;6339279;22;20420;-57
2023/08/29 00:45:12;;;;;;;6.40;5.80;;;13.10;99.90;;;;;;6339101;22;20635;-58
2023/08/29 00:47:37;;;;;;;6.57;5.97;;;13.10;99.90;;;;;;6339372;22;20553;-54
2023/08/29 00:50:03;;;;;;;6.00;5.50;;;13.10;99.90;;;;;;6312459;22;20131;-55
2023/08/29 00:52:30;;;;;;;6.10;5.60;;;13.10;99.90;;;;;;6313090;22;20234;-58
2023/08/29 00:54:56;;;;;;;5.53;5.13;;;13.10;99.90;;;;;;6340538;22;20412;-56
2023/08/29 00:57:22;;;;;;;5.80;5.30;;;13.10;99.90;;;;;;6340733;22;20638;-58
2023/08/29 00:59:48;;;;;;;6.03;5.53;;;13.10;99.90;;;;;;6339732;22;20392;-56
2023/08/29 01:02:13;;;;;;;7.10;5.97;;;13.10;99.90;;;;;;6312568;22;20214;-58
2023/08/29 01:04:39;;;;;;;6.47;5.87;;;13.10;99.90;;;;;;6340035;22;20376;-57
2023/08/29 01:07:05;;;;;;;6.33;5.83;;;13.10;99.90;;;;;;6340284;22;20175;-60
2023/08/29 01:09:31;;;;;;;6.50;5.80;;;13.10;99.90;;;;;;6341186;22;20155;-57
2023/08/29 01:12:14;;;;;;;6.57;5.90;;;13.10;99.90;;;;;;6313007;22;20385;-57
2023/08/29 01:14:46;;;;;;;6.67;6.03;;;13.10;99.90;;;;;;6331254;22;20172;-58
2023/08/29 01:17:26;;;;;;;7.40;6.80;;;13.10;99.90;;;;;;6336407;22;20440;-58
2023/08/29 01:19:52;;;;;;;6.43;5.93;;;13.10;99.90;;;;;;6339265;22;20357;-56
2023/08/29 01:22:33;;;;;;;6.33;5.83;;;13.10;99.90;;;;;;6312175;22;20385;-57
2023/08/29 01:25:17;;;;;;;6.50;6.00;;;13.10;99.90;;;;;;6339264;22;20396;-55
2023/08/29 01:27:42;;;;;;;7.13;6.43;;;13.10;99.90;;;;;;6338840;22;20440;-52
2023/08/29 01:30:09;;;;;;;7.60;6.60;;;13.10;99.90;;;;;;6311893;22;20381;-54
2023/08/29 01:32:35;;;;;;;7.00;6.27;;;13.10;99.90;;;;;;6339513;22;20296;-56
2023/08/29 01:35:02;;;;;;;6.93;6.33;;;13.10;99.90;;;;;;6311956;22;20353;-56
2023/08/29 01:37:28;;;;;;;7.87;5.93;;;13.10;99.90;;;;;;6338412;22;20419;-56
2023/08/29 01:39:57;;;;;;;6.43;5.93;;;13.00;99.90;;;;;;6337092;22;20385;-55
2023/08/29 01:42:22;;;;;;;7.10;6.47;;;13.00;99.90;;;;;;6339038;22;20382;-57
2023/08/29 01:44:48;;;;;;;6.50;5.97;;;13.00;99.90;;;;;;6339701;22;20397;-56
2023/08/29 01:47:13;;;;;;;6.60;6.00;;;13.10;99.90;;;;;;6339366;22;20159;-55
2023/08/29 01:49:39;;;;;;;7.07;6.47;;;13.10;99.90;;;;;;6339916;22;20134;-55
2023/08/29 01:52:05;;;;;;;7.53;5.90;;;13.10;99.90;;;;;;6312466;22;20242;-57
2023/08/29 01:54:31;;;;;;;6.20;5.60;;;13.10;99.90;;;;;;6340395;22;20523;-57
2023/08/29 01:56:58;;;;;;;7.47;6.87;;;13.10;99.90;;;;;;6312638;22;20422;-55
2023/08/29 01:59:24;;;;;;;6.90;6.30;;;13.10;99.90;;;;;;6313051;22;20151;-56
2023/08/29 02:01:50;;;;;;;7.20;5.20;;;13.10;99.90;;;;;;6340667;22;20387;-56
2023/08/29 02:04:16;;;;;;;6.57;5.97;;;13.10;99.90;;;;;;6312898;22;20381;-57
2023/08/29 02:06:42;;;;;;;7.07;6.47;;;13.10;99.90;;;;;;6339840;22;20452;-57
2023/08/29 02:09:07;;;;;;;7.10;6.50;;;13.10;99.90;;;;;;6340425;22;20151;-57
2023/08/29 02:11:33;;;;;;;6.73;6.13;;;13.10;99.90;;;;;;6339472;22;20158;-56
2023/08/29 02:13:59;;;;;;;7.00;6.30;;;13.10;99.90;;;;;;6340072;22;20184;-55
2023/08/29 02:16:24;;;;;;;6.33;5.73;;;13.10;99.90;;;;;;6340127;22;20151;-56
2023/08/29 02:18:53;;;;;;;7.00;6.43;;;13.10;99.90;;;;;;6339625;22;20158;-56
2023/08/29 02:21:19;;;;;;;6.50;6.00;;;13.10;99.90;;;;;;6339568;22;20416;-55
2023/08/29 02:23:45;;;;;;;6.50;5.80;;;13.10;99.90;;;;;;6339685;22;20426;-57
2023/08/29 02:26:11;;;;;;;6.97;6.37;;;13.20;99.90;;;;;;6339538;22;20570;-56
2023/08/29 02:28:37;;;;;;;7.10;6.50;;;13.20;99.90;;;;;;6311930;22;20389;-55
2023/08/29 02:31:07;;;;;;;6.33;5.73;;;13.20;99.90;;;;;;6339850;22;20282;-57
2023/08/29 02:33:34;;;;;;;6.90;6.40;;;13.20;99.90;;;;;;6339955;22;20381;-57
2023/08/29 02:36:00;;;;;;;7.57;6.97;;;13.20;99.90;;;;;;6340156;22;20463;-57
2023/08/29 02:38:26;;;;;;;7.30;6.70;;;13.20;99.90;;;;;;6334464;22;20390;-56
2023/08/29 02:40:51;;;;;;;7.43;6.83;;;13.20;99.90;;;;;;6332826;22;20131;-57
2023/08/29 02:43:17;;;;;;;7.90;7.30;;;13.20;99.90;;;;;;6339122;22;20590;-54
2023/08/29 02:45:43;;;;;;;7.50;6.90;;;13.20;99.90;;;;;;6340284;22;20218;-55
2023/08/29 02:48:09;;;;;;;6.87;6.27;;;13.20;99.90;;;;;;6312020;22;20179;-57
2023/08/29 02:50:36;;;;;;;9.40;8.50;;;13.20;99.90;;;;;;6339926;22;20385;-56
2023/08/29 02:53:02;;;;;;;8.07;7.37;;;13.20;99.90;;;;;;6312366;22;20760;-55
2023/08/29 02:55:28;;;;;;;8.07;7.37;;;13.20;99.90;;;;;;6329527;22;20648;-56
2023/08/29 02:57:54;;;;;;;9.60;8.80;;;13.20;99.90;;;;;;6341973;22;20417;-57
2023/08/29 03:00:21;;;;;;;9.20;8.20;;;13.20;99.90;;;;;;6341640;22;20815;-58
2023/08/29 03:02:47;;;;;;;9.37;8.57;;;13.20;99.90;;;;;;6330049;22;20439;-57
2023/08/29 03:05:12;;;;;;;8.93;8.13;;;13.20;99.90;;;;;;6310952;22;20361;-56
2023/08/29 03:07:38;;;;;;;8.97;8.27;;;13.20;99.90;;;;;;6340606;22;20728;-56
2023/08/29 03:10:05;;;;;;;9.07;8.27;;;13.30;99.90;;;;;;6340974;22;20247;-57
2023/08/29 03:12:30;;;;;;;9.23;8.53;;;13.30;99.90;;;;;;6339365;22;20179;-56
2023/08/29 03:14:56;;;;;;;10.07;9.20;;;13.30;99.90;;;;;;6312746;22;20388;-56
2023/08/29 03:17:22;;;;;;;8.27;7.60;;;13.20;99.90;;;;;;6338601;22;20182;-57
2023/08/29 03:19:48;;;;;;;8.33;7.73;;;13.20;99.90;;;;;;6338007;22;20201;-57
2023/08/29 03:22:14;;;;;;;10.20;9.30;;;13.20;99.90;;;;;;6339073;22;20421;-56
2023/08/29 03:24:40;;;;;;;9.20;8.40;;;13.20;99.90;;;;;;6338832;22;20151;-56
2023/08/29 03:27:05;;;;;;;8.87;8.17;;;13.20;99.90;;;;;;6340654;22;20729;-57
2023/08/29 03:29:31;;;;;;;9.10;8.30;;;13.20;99.90;;;;;;6339573;22;20147;-57
2023/08/29 03:31:57;;;;;;;10.83;9.93;;;13.20;99.90;;;;;;6339733;22;20468;-57
2023/08/29 03:34:23;;;;;;;10.90;10.00;;;13.20;99.90;;;;;;6339768;22;20261;-55
2023/08/29 03:36:48;;;;;;;10.73;9.80;;;13.30;99.90;;;;;;6338636;22;20553;-54
2023/08/29 03:39:14;;;;;;;11.97;10.97;;;13.30;99.90;;;;;;6338551;22;20200;-56
2023/08/29 03:41:39;;;;;;;11.80;10.80;;;13.20;99.90;;;;;;6338391;22;20231;-56
2023/08/29 03:44:05;;;;;;;11.53;10.60;;;13.20;99.90;;;;;;6337659;22;20214;-56
2023/08/29 03:46:31;;;;;;;11.90;10.90;;;13.20;99.90;;;;;;6312130;22;20203;-56
2023/08/29 03:48:57;;;;;;;11.63;10.63;;;13.10;99.90;;;;;;6338537;22;20151;-57
2023/08/29 03:51:22;;;;;;;11.40;10.33;;;13.10;99.90;;;;;;6338927;22;20208;-55
2023/08/29 03:53:48;;;;;;;11.80;10.80;;;13.10;99.90;;;;;;6338871;22;20507;-56
2023/08/29 03:56:15;;;;;;;12.67;11.60;;;13.10;99.90;;;;;;6340367;22;20158;-54
2023/08/29 03:58:40;;;;;;;12.07;11.07;;;13.20;99.90;;;;;;6339584;22;20428;-55
2023/08/29 04:01:07;;;;;;;13.03;11.93;;;13.10;99.90;;;;;;6338578;22;20815;-55
2023/08/29 04:03:33;;;;;;;12.73;11.63;;;13.10;99.90;;;;;;6339565;22;20155;-57
2023/08/29 04:05:59;;;;;;;13.23;11.67;;;13.10;99.90;;;;;;6338792;22;20416;-56
2023/08/29 04:08:24;;;;;;;14.87;13.53;;;13.10;1.00;;;;;;6339983;22;20175;-57
2023/08/29 04:10:50;;;;;;;13.87;12.70;;;13.10;1.00;;;;;;6340126;22;20238;-57
2023/08/29 04:13:15;;;;;;;13.10;12.00;;;13.10;1.00;;;;;;6339614;22;20147;-57
2023/08/29 04:15:41;;;;;;;15.67;14.13;;;13.10;1.00;;;;;;6312827;22;20266;-56
2023/08/29 04:18:10;;;;;;;16.27;14.67;;;13.10;1.00;;;;;;6313009;22;20195;-56
2023/08/29 04:20:36;;;;;;;17.30;15.90;;;13.10;1.00;;;;;;6340239;22;20403;-58
2023/08/29 04:23:07;;;;;;;16.50;14.90;;;13.10;1.00;;;;;;6340142;22;20699;-56
2023/08/29 04:25:36;;;;;;;15.50;14.20;;;13.10;1.00;;;;;;6340439;22;20756;-55
2023/08/29 04:28:03;;;;;;;16.80;15.30;;;13.10;1.00;;;;;;6339502;22;20420;-55
2023/08/29 04:30:29;;;;;;;18.63;16.70;;;13.00;1.00;;;;;;6338903;22;20442;-57
2023/08/29 04:32:55;;;;;;;16.53;15.03;;;13.00;1.00;;;;;;6311981;22;20354;-57
2023/08/29 04:35:21;;;;;;;16.80;15.33;;;13.00;1.00;;;;;;6339713;22;20398;-57
2023/08/29 04:37:48;;;;;;;17.03;15.33;;;13.00;1.00;;;;;;6340605;22;20408;-56
2023/08/29 04:40:15;;;;;;;17.40;15.90;;;13.00;1.00;;;;;;6312973;22;20399;-57
2023/08/29 04:42:41;;;;;;;16.03;14.63;;;13.00;1.00;;;;;;6339356;22;21383;-57
2023/08/29 04:45:07;;;;;;;19.10;17.40;;;12.90;1.00;;;;;;6338751;22;20414;-57
2023/08/29 04:47:34;;;;;;;18.90;17.27;;;13.00;1.00;;;;;;6338545;22;20172;-57
2023/08/29 04:50:00;;;;;;;17.13;15.63;;;13.00;1.00;;;;;;6337711;22;20378;-56
2023/08/29 04:52:26;;;;;;;18.40;16.77;;;13.00;1.00;;;;;;6336396;22;20508;-56
2023/08/29 04:54:55;;;;;;;19.07;17.27;;;13.00;1.00;;;;;;6336957;22;20385;-55
2023/08/29 04:57:21;;;;;;;18.60;16.90;;;12.90;1.00;;;;;;6336703;22;20439;-56
2023/08/29 04:59:50;;;;;;;18.67;16.97;;;13.00;1.00;;;;;;6338579;22;20357;-57
2023/08/29 05:02:17;;;;;;;17.83;16.27;;;13.00;1.00;;;;;;6338298;22;20811;-57
2023/08/29 05:04:47;;;;;;;16.93;15.53;;;13.00;1.00;;;;;;6339303;22;20475;-55
2023/08/29 05:07:13;;;;;;;18.07;16.13;;;13.00;1.00;;;;;;6338292;22;20425;-56
2023/08/29 05:09:39;;;;;;;19.57;17.77;;;13.00;1.00;;;;;;6338238;22;20476;-56
2023/08/29 05:12:10;;;;;;;18.43;16.90;;;13.00;1.00;;;;;;6336764;22;20938;-55
2023/08/29 05:14:35;;;;;;;21.00;19.10;;;13.10;1.00;;;;;;6336025;22;20529;-57
2023/08/29 05:17:01;;;;;;;19.30;17.43;;;13.10;1.00;;;;;;6336476;22;20381;-56
2023/08/29 05:19:27;;;;;;;19.80;18.00;;;13.10;1.00;;;;;;6337224;22;20151;-56
2023/08/29 05:21:53;;;;;;;19.73;17.97;;;13.10;1.00;;;;;;6336695;22;20166;-56
2023/08/29 05:24:18;;;;;;;19.67;17.57;;;13.10;1.00;;;;;;6336988;22;20155;-56
2023/08/29 05:26:44;;;;;;;19.73;17.80;;;13.10;1.00;;;;;;6339102;22;20166;-55
2023/08/29 05:29:10;;;;;;;17.77;16.00;;;13.20;1.00;;;;;;6338967;22;20664;-56
2023/08/29 05:31:36;;;;;;;20.37;18.67;;;13.10;1.00;;;;;;6338404;22;20393;-56
2023/08/29 05:34:02;;;;;;;19.33;17.53;;;13.20;1.00;;;;;;6338120;22;20578;-56
2023/08/29 05:36:27;;;;;;;21.23;19.43;;;13.10;1.00;;;;;;6338194;22;20155;-57
2023/08/29 05:38:53;;;;;;;20.30;18.33;;;13.10;1.00;;;;;;6338045;22;20409;-55
2023/08/29 05:41:18;;;;;;;20.10;18.20;;;13.10;1.00;;;;;;6310456;22;20151;-56
2023/08/29 05:43:44;;;;;;;22.03;20.03;;;13.20;1.00;;;;;;6337392;22;20750;-56
2023/08/29 05:46:10;;;;;;;19.53;17.70;;;13.20;1.00;;;;;;6336975;22;20151;-57
2023/08/29 05:48:35;;;;;;;19.33;17.53;;;13.30;1.00;;;;;;6336385;22;20229;-56
2023/08/29 05:51:01;;;;;;;18.73;17.13;;;13.30;1.00;;;;;;6337003;22;20209;-56
2023/08/29 05:53:27;;;;;;;19.20;17.60;;;13.30;1.00;;;;;;6338121;22;20380;-58
2023/08/29 05:55:54;;;;;;;21.80;19.90;;;13.40;1.00;;;;;;6338461;22;20194;-56
2023/08/29 05:58:21;;;;;;;19.90;18.30;;;13.50;1.00;;;;;;6338736;22;20385;-55
2023/08/29 06:00:47;;;;;;;18.67;17.03;;;13.50;1.00;;;;;;6339474;22;20212;-57
2023/08/29 06:03:13;;;;;;;19.47;17.67;;;13.60;1.00;;;;;;6338672;22;20396;-56
2023/08/29 06:05:41;;;;;;;17.30;15.70;;;13.60;1.00;;;;;;6338935;22;20638;-57
2023/08/29 06:08:07;;;;;;;19.07;17.47;;;13.60;1.00;;;;;;6336922;22;20719;-56
2023/08/29 06:10:33;;;;;;;18.63;17.03;;;13.60;1.00;;;;;;6310188;22;20776;-57
2023/08/29 06:12:59;;;;;;;19.60;17.60;;;13.60;1.00;;;;;;6337920;22;20385;-56
2023/08/29 06:15:24;;;;;;;21.27;19.07;;;13.60;1.00;;;;;;6338588;22;20151;-56
2023/08/29 06:17:50;;;;;;;19.07;17.27;;;13.60;1.00;;;;;;6336572;22;20183;-56
2023/08/29 06:20:16;;;;;;;19.57;17.83;;;13.60;1.00;;;;;;6336461;22;20155;-56
2023/08/29 06:22:42;;;;;;;18.90;17.30;;;13.60;1.00;;;;;;6335297;22;20538;-54
2023/08/29 06:25:09;;;;;;;17.40;16.00;;;13.60;1.00;;;;;;6337698;22;20389;-57
2023/08/29 06:27:36;;;;;;;18.53;16.93;;;13.50;1.00;;;;;;6337949;22;20436;-53
2023/08/29 06:30:02;;;;;;;18.50;16.87;;;13.50;1.00;;;;;;6341813;22;20378;-56
2023/08/29 06:32:29;;;;;;;17.33;15.73;;;13.50;1.00;;;;;;6341681;22;20511;-56
2023/08/29 06:34:55;;;;;;;17.77;16.20;;;13.50;1.00;;;;;;6341410;22;20430;-54
2023/08/29 06:37:21;;;;;;;17.77;16.17;;;13.50;1.00;;;;;;6341998;22;20388;-56
2023/08/29 06:39:47;;;;;;;19.17;17.37;;;13.50;1.00;;;;;;6341759;22;20853;-57
2023/08/29 06:42:12;;;;;;;19.10;17.20;;;13.50;1.00;;;;;;6314566;22;20422;-56
2023/08/29 06:44:38;;;;;;;18.33;16.83;;;13.50;1.00;;;;;;6340628;22;20203;-55
2023/08/29 06:47:04;;;;;;;17.67;16.00;;;13.50;1.00;;;;;;6340954;22;20186;-57
2023/08/29 06:49:30;;;;;;;17.23;15.83;;;13.60;1.00;;;;;;6339792;22;20157;-55
2023/08/29 06:51:56;;;;;;;18.10;16.50;;;13.60;1.00;;;;;;6312649;22;20508;-57
2023/08/29 06:54:21;;;;;;;17.60;16.00;;;13.60;1.00;;;;;;6341523;22;20200;-57
2023/08/29 06:56:49;;;;;;;17.40;16.00;;;13.60;1.00;;;;;;6341507;22;20159;-55
2023/08/29 06:59:15;;;;;;;16.20;14.90;;;13.60;1.00;;;;;;6340713;22;20535;-57
2023/08/29 07:01:41;;;;;;;18.33;16.83;;;13.60;1.00;;;;;;6339816;22;20475;-55
2023/08/29 07:04:09;;;;;;;16.17;14.87;;;13.60;1.00;;;;;;6339708;22;20381;-56
2023/08/29 07:06:34;;;;;;;16.40;15.00;;;13.60;1.00;;;;;;6339166;22;20425;-56
2023/08/29 07:09:00;;;;;;;16.30;14.90;;;13.60;1.00;;;;;;6340858;22;20467;-56
2023/08/29 07:11:26;;;;;;;15.60;14.30;;;13.70;1.00;;;;;;6313571;22;20167;-56
2023/08/29 07:13:52;;;;;;;15.37;14.00;;;13.70;1.00;;;;;;6338740;22;20364;-56
2023/08/29 07:16:17;;;;;;;16.40;14.93;;;13.60;1.00;;;;;;6339028;22;20151;-55
2023/08/29 07:18:44;;;;;;;15.50;13.97;;;13.70;1.00;;;;;;6338982;22;20178;-54
2023/08/29 07:21:10;;;;;;;16.60;15.10;;;13.60;1.00;;;;;;6312707;22;20254;-57
2023/08/29 07:23:36;;;;;;;16.30;14.97;;;13.60;1.00;;;;;;6341183;22;20764;-54
2023/08/29 07:26:01;;;;;;;16.07;14.63;;;13.60;1.00;;;;;;6340591;22;20353;-54
2023/08/29 07:28:27;;;;;;;16.30;14.83;;;13.70;1.00;;;;;;6340953;22;20753;-53
2023/08/29 07:30:53;;;;;;;15.53;14.23;;;13.70;1.00;;;;;;6340057;22;20231;-57
2023/08/29 07:33:19;;;;;;;17.30;15.80;;;13.70;1.00;;;;;;6341232;22;20195;-55
2023/08/29 07:35:46;;;;;;;16.37;15.07;;;13.80;1.00;;;;;;6341327;22;20720;-56
2023/08/29 07:38:13;;;;;;;16.90;15.50;;;13.80;1.00;;;;;;6341361;22;20349;-56
2023/08/29 07:40:38;;;;;;;16.80;15.47;;;13.90;1.00;;;;;;6339615;22;20424;-56
2023/08/29 07:43:06;;;;;;;13.40;12.20;;;14.00;1.00;;;;;;6340017;22;20389;-57
2023/08/29 07:45:32;;;;;;;18.60;17.03;;;14.20;1.00;;;;;;6338797;22;20191;-56
2023/08/29 07:47:58;;;;;;;15.47;14.07;;;14.70;1.00;;;;;;6339797;22;20709;-56
2023/08/29 07:50:24;;;;;;;14.70;13.43;;;14.80;1.00;;;;;;6340432;22;20404;-57
2023/08/29 07:52:50;;;;;;;14.23;13.10;;;14.80;99.90;;;;;;6339935;22;20441;-54
2023/08/29 07:55:16;;;;;;;15.20;13.80;;;14.80;99.90;;;;;;6340573;22;20453;-57
2023/08/29 07:57:42;;;;;;;14.17;13.07;;;14.70;99.90;;;;;;6312709;22;20693;-58
2023/08/29 08:00:10;;;;;;;15.40;14.20;;;14.70;99.90;;;;;;6339850;22;20155;-56
2023/08/29 08:02:38;;;;;;;14.97;13.73;;;14.60;99.90;;;;;;6339813;22;20443;-57
2023/08/29 08:05:10;;;;;;;16.13;14.60;;;14.60;99.90;;;;;;6338897;22;20380;-57
2023/08/29 08:07:36;;;;;;;14.33;13.13;;;14.60;99.90;;;;;;6338422;22;20409;-56
2023/08/29 08:10:04;;;;;;;16.27;14.87;;;14.60;99.90;;;;;;6339482;22;20469;-56
2023/08/29 08:12:33;;;;;;;15.20;13.80;;;14.70;99.90;;;;;;6337812;22;20381;-57
2023/08/29 08:14:59;;;;;;;16.03;14.73;;;14.70;99.90;;;;;;6311587;22;20382;-55
2023/08/29 08:17:25;;;;;;;14.80;13.60;;;14.90;99.90;;;;;;6337445;22;20781;-55
2023/08/29 08:19:51;;;;;;;17.50;16.10;;;14.90;99.90;;;;;;6339537;22;20391;-55
2023/08/29 08:22:17;;;;;;;15.33;14.13;;;15.00;99.90;;;;;;6336763;22;20466;-55
2023/08/29 08:24:43;;;;;;;15.60;14.13;;;15.00;99.90;;;;;;6336909;22;20484;-56
2023/08/29 08:27:08;;;;;;;16.03;14.73;;;15.10;99.90;;;;;;6336472;22;20171;-56
2023/08/29 08:29:34;;;;;;;17.93;16.37;;;15.10;99.90;;;;;;6337127;22;20637;-57
2023/08/29 08:32:00;;;;;;;14.80;13.60;;;15.10;99.90;;;;;;6337926;22;20193;-56
2023/08/29 08:34:25;;;;;;;16.17;14.77;;;15.10;99.90;;;;;;6338993;22;20210;-56
2023/08/29 08:36:51;;;;;;;18.40;16.73;;;15.10;99.90;;;;;;6338833;22;20179;-56
2023/08/29 08:39:17;;;;;;;15.63;14.40;;;15.10;99.90;;;;;;6339450;22;20593;-55
2023/08/29 08:41:43;;;;;;;15.73;14.53;;;15.00;99.90;;;;;;6337257;22;20174;-55
2023/08/29 08:44:09;;;;;;;17.13;15.63;;;15.10;99.90;;;;;;6336712;22;20150;-56
2023/08/29 08:46:36;;;;;;;17.13;15.50;;;15.20;99.90;;;;;;6335874;22;20179;-55
2023/08/29 08:49:02;;;;;;;16.30;15.00;;;15.30;99.90;;;;;;6309170;22;20387;-55
2023/08/29 08:51:30;;;;;;;16.30;15.10;;;15.40;99.90;;;;;;6310029;22;20155;-55
2023/08/29 08:53:55;;;;;;;17.20;15.80;;;15.50;53.30;;;;;;6311388;22;20382;-55
2023/08/29 08:56:22;;;;;;;15.77;14.57;;;15.60;1.00;;;;;;6336989;22;20381;-56
2023/08/29 08:58:48;;;;;;;17.40;15.90;;;15.60;1.00;;;;;;6309807;22;20369;-56
2023/08/29 09:01:14;;;;;;;17.67;16.37;;;15.40;1.00;;;;;;6339068;22;20646;-56
2023/08/29 09:03:41;;;;;;;16.07;14.93;;;15.40;19.40;;;;;;6339499;22;20381;-56
2023/08/29 09:06:07;;;;;;;16.80;15.33;;;15.50;45.70;;;;;;6338055;22;20165;-56
2023/08/29 09:08:34;;;;;;;16.60;15.30;;;15.60;46.00;;;;;;6338785;22;21031;-55
2023/08/29 09:11:01;;;;;;;15.80;14.60;;;15.60;8.60;;;;;;6337281;22;20383;-56
2023/08/29 09:13:27;;;;;;;15.60;14.40;;;15.70;45.30;;;;;;6338503;22;20787;-55
2023/08/29 09:15:53;;;;;;;15.27;14.17;;;15.90;11.40;;;;;;6338766;22;20381;-56
2023/08/29 09:18:32;;;;;;;15.00;13.87;;;16.10;1.00;;;;;;6309886;22;20401;-56
2023/08/29 09:21:07;;;;;;;17.00;15.70;;;16.20;1.00;;;;;;6336426;22;20385;-54
2023/08/29 09:23:37;;;;;;;15.30;14.20;;;16.10;1.00;;;;;;6299874;22;20432;-55
2023/08/29 09:26:04;;;;;;;16.20;14.80;;;16.10;99.90;;;;;;6311201;22;20641;-54
2023/08/29 09:28:29;;;;;;;16.17;15.07;;;16.00;1.00;;;;;;6339443;22;20773;-53
2023/08/29 09:31:03;;;;;;;14.73;13.53;;;16.00;1.00;;;;;;6340032;22;20389;-56
2023/08/29 09:33:29;;;;;;;15.40;14.20;;;15.90;1.00;;;;;;6340078;22;20600;-54
2023/08/29 09:35:55;;;;;;;13.90;12.90;;;16.10;1.00;;;;;;6340148;22;20385;-54
2023/08/29 09:38:21;;;;;;;13.43;12.43;;;16.30;99.90;;;;;;6339125;22;20540;-56
2023/08/29 09:40:50;;;;;;;14.90;13.60;;;16.40;99.90;;;;;;6336693;22;20381;-57
2023/08/29 09:43:17;;;;;;;13.03;12.10;;;16.50;1.00;;;;;;6338949;22;20143;-55
2023/08/29 09:45:49;;;;;;;13.37;12.27;;;16.50;1.00;;;;;;6338247;22;20400;-56
2023/08/29 09:48:15;;;;;;;12.03;11.03;;;16.70;1.00;;;;;;6310586;22;20425;-59
2023/08/29 09:50:41;;;;;;;12.50;11.50;;;16.80;77.70;;;;;;6336470;22;20610;-54
2023/08/29 09:53:08;;;;;;;12.70;11.47;;;17.00;1.00;;;;;;6336941;22;20136;-56
2023/08/29 09:55:43;;;;;;;12.37;11.37;;;17.30;99.90;;;;;;6335597;22;20449;-55
2023/08/29 09:58:10;;;;;;;11.73;10.80;;;17.50;99.90;;;;;;6334767;22;20377;-54
2023/08/29 10:00:36;;;;;;;11.37;10.43;;;17.50;99.90;;;;;;6337047;22;20396;-55
2023/08/29 10:03:05;;;;;;;11.10;10.07;;;17.50;1.00;;;;;;6338015;22;20465;-56
2023/08/29 10:05:34;;;;;;;11.47;10.47;;;17.70;1.00;;;;;;6338860;22;20390;-56
2023/08/29 10:08:12;;;;;;;9.87;9.17;;;17.80;99.90;;;;;;6337034;22;20516;-56
2023/08/29 10:10:43;;;;;;;10.00;9.30;;;17.90;99.90;;;;;;6310234;22;20369;-54
2023/08/29 10:13:09;;;;;;;9.33;8.63;;;18.10;99.90;;;;;;6310975;22;20404;-56
2023/08/29 10:15:35;;;;;;;11.10;10.20;;;18.30;1.00;;;;;;6310722;22;20411;-55
2023/08/29 10:18:01;;;;;;;10.30;9.50;;;18.40;99.90;;;;;;6338371;22;20377;-57
2023/08/29 10:20:28;;;;;;;11.13;10.07;;;18.50;99.90;;;;;;6336501;22;20381;-57
2023/08/29 10:22:54;;;;;;;9.70;8.90;;;18.50;99.90;;;;;;6336486;22;20190;-56
2023/08/29 10:25:23;;;;;;;8.80;8.10;;;18.50;1.00;;;;;;6337123;22;20486;-56
2023/08/29 10:27:49;;;;;;;9.03;8.43;;;18.50;1.00;;;;;;6310076;22;20425;-55
2023/08/29 10:30:15;;;;;;;8.37;7.87;;;18.40;1.00;;;;;;6309669;22;20377;-58
2023/08/29 10:32:43;;;;;;;9.70;8.57;;;18.40;69.60;;;;;;6308694;22;20518;-55
2023/08/29 10:35:19;;;;;;;9.33;8.63;;;18.30;99.90;;;;;;6336399;22;20163;-55
2023/08/29 10:37:46;;;;;;;10.70;9.77;;;18.00;1.00;;;;;;6336666;22;20395;-57
2023/08/29 10:40:12;;;;;;;10.37;9.57;;;17.80;1.00;;;;;;6338043;22;20582;-55
2023/08/29 10:42:52;;;;;;;10.93;10.13;;;17.50;1.00;;;;;;6310255;22;20397;-55
2023/08/29 10:45:20;;;;;;;11.63;10.77;;;17.20;99.90;;;;;;6336017;22;20675;-55
2023/08/29 10:47:46;;;;;;;12.80;11.90;;;16.90;73.70;;;;;;6335354;22;20433;-55
2023/08/29 10:50:18;;;;;;;12.60;11.70;;;16.70;1.00;;;;;;6335828;22;20594;-57
2023/08/29 10:52:46;;;;;;;13.97;12.70;;;16.60;82.50;;;;;;6336679;22;20354;-57
2023/08/29 10:55:30;;;;;;;14.40;13.40;;;16.60;99.90;;;;;;6309155;22;20820;-55
2023/08/29 10:57:58;;;;;;;14.80;13.60;;;16.60;99.90;;;;;;6336578;22;20481;-53
2023/08/29 11:00:40;;;;;;;14.20;13.17;;;16.60;1.00;;;;;;6335374;22;20377;-52
2023/08/29 11:03:06;;;;;;;15.73;14.57;;;16.50;1.00;;;;;;6335898;22;20389;-53
2023/08/29 11:05:33;;;;;;;14.90;13.90;;;16.40;99.90;;;;;;6308517;22;20462;-53
2023/08/29 11:08:19;;;;;;;15.60;14.50;;;16.30;1.00;;;;;;6335536;22;20163;-56
2023/08/29 11:11:24;;;;;;;15.57;14.40;;;16.40;1.00;;;;;;6337034;22;20381;-55
2023/08/29 11:14:03;;;;;;;14.43;13.43;;;16.50;1.00;;;;;;6337753;22;20491;-57
2023/08/29 11:16:35;;;;;;;14.43;13.43;;;16.70;1.00;;;;;;6337605;22;20357;-58
2023/08/29 11:19:10;;;;;;;13.60;12.60;;;16.90;1.00;;;;;;6313339;22;20820;-55
2023/08/29 11:21:36;;;;;;;13.40;12.37;;;17.10;99.90;;;;;;6338901;22;20377;-56
2023/08/29 11:24:05;;;;;;;15.30;14.00;;;17.00;1.00;;;;;;6340334;22;20370;-56
2023/08/29 11:26:33;;;;;;;13.03;12.13;;;17.00;1.00;;;;;;6340392;22;20143;-56
2023/08/29 11:29:00;;;;;;;14.57;13.47;;;17.10;1.00;;;;;;6339965;22;20464;-55
2023/08/29 11:31:26;;;;;;;14.83;13.67;;;17.10;46.40;;;;;;6337611;22;20422;-55
2023/08/29 11:33:52;;;;;;;15.93;14.50;;;17.10;22.80;;;;;;6310199;22;20477;-56
2023/08/29 11:36:18;;;;;;;14.70;13.60;;;17.10;1.00;;;;;;6339272;22;20135;-54
2023/08/29 11:38:44;;;;;;;16.10;14.80;;;17.10;1.00;;;;;;6340457;22;20362;-56
2023/08/29 11:41:10;;;;;;;14.43;13.40;;;17.10;1.00;;;;;;6339335;22;20388;-56
2023/08/29 11:43:37;;;;;;;14.90;13.80;;;17.20;1.00;;;;;;6340718;22;20389;-56
2023/08/29 11:46:18;;;;;;;15.47;14.37;;;17.40;1.00;;;;;;6341025;22;20401;-56
2023/08/29 11:48:43;;;;;;;14.57;13.20;;;17.50;99.90;;;;;;6339125;22;20713;-54
2023/08/29 11:51:11;;;;;;;12.97;11.80;;;17.60;99.90;;;;;;6337930;22;20419;-57
2023/08/29 11:53:39;;;;;;;11.93;11.03;;;17.60;3.30;;;;;;6337002;22;20128;-55
2023/08/29 11:56:08;;;;;;;8.50;7.70;;;17.70;99.90;;;;;;6337765;22;20377;-58
2023/08/29 11:58:36;;;;;;;11.43;9.63;;;17.80;53.10;;;;;;6338749;22;20385;-55
2023/08/29 12:01:03;;;;;;;11.33;10.40;;;18.10;1.00;;;;;;6337358;22;20680;-54
2023/08/29 12:03:28;;;;;;;11.90;11.10;;;18.20;99.90;;;;;;6309005;22;20385;-57
2023/08/29 12:05:58;;;;;;;12.33;11.43;;;18.40;70.60;;;;;;6309402;22;21026;-54
2023/08/29 12:08:52;;;;;;;13.83;12.83;;;18.60;1.00;;;;;;6340292;22;20171;-55
2023/08/29 12:11:18;;;;;;;13.40;12.37;;;18.80;1.00;;;;;;6306163;22;20407;-54
2023/08/29 12:14:00;;;;;;;12.40;11.57;;;18.80;1.00;;;;;;6338561;22;20813;-56
2023/08/29 12:16:26;;;;;;;13.23;12.30;;;18.90;36.70;;;;;;6339665;22;20155;-54
2023/08/29 12:19:06;;;;;;;10.73;9.93;;;18.90;99.90;;;;;;6313205;22;20424;-57
2023/08/29 12:21:32;;;;;;;11.10;9.90;;;18.70;1.00;;;;;;6311674;22;20844;-56
2023/08/29 12:24:12;;;;;;;12.40;11.60;;;18.50;1.00;;;;;;6338162;22;20362;-55
2023/08/29 12:26:38;;;;;;;12.63;11.73;;;18.20;99.90;;;;;;6336691;22;20175;-56
2023/08/29 12:29:03;;;;;;;11.40;10.60;;;17.90;17.50;;;;;;6286808;22;20522;-54
2023/08/29 12:31:29;;;;;;;13.00;12.03;;;17.70;1.00;;;;;;6314234;22;20539;-53
2023/08/29 12:33:55;;;;;;;12.43;11.60;;;17.50;1.00;;;;;;6337769;22;20197;-56
2023/08/29 12:36:20;;;;;;;12.23;11.33;;;17.40;99.90;;;;;;6338875;22;20147;-55
2023/08/29 12:38:46;;;;;;;14.57;13.47;;;17.40;99.90;;;;;;6312152;22;20150;-54